sensor_id;sensor_type;location;lat;lon;timestamp;P1;durP1;ratioP1;P2;durP2;ratioP2
4694;SDS011;2361;49.540;8.390;2022-12-15T00:02:42;7.40;;;4.43;;
4694;SDS011;2361;49.540;8.390;2022-12-15T00:05:28;7.57;;;4.22;;
4694;SDS011;2361;49.540;8.390;2022-12-15T00:08:15;15.20;;;6.50;;
4694;SDS011;2361;49.540;8.390;2022-12-15T00:11:01;11.95;;;6.22;;
4694;SDS011;2361;49.540;8.390;2022-12-15T00:13:47;8.30;;;5.47;;
4694;SDS011;2361;49.540;8.390;2022-12-15T00:16:32;9.80;;;6.57;;
4694;SDS011;2361;49.540;8.390;2022-12-15T00:19:18;10.30;;;6.22;;
4694;SDS011;2361;49.540;8.390;2022-12-15T00:22:04;13.65;;;6.38;;
4694;SDS011;2361;49.540;8.390;2022-12-15T00:24:50;11.20;;;6.35;;
4694;SDS011;2361;49.540;8.390;2022-12-15T00:27:35;14.38;;;7.60;;
4694;SDS011;2361;49.540;8.390;2022-12-15T00:30:21;11.88;;;5.15;;
4694;SDS011;2361;49.540;8.390;2022-12-15T00:33:07;9.73;;;4.90;;
4694;SDS011;2361;49.540;8.390;2022-12-15T00:35:56;14.70;;;5.82;;
4694;SDS011;2361;49.540;8.390;2022-12-15T00:38:43;7.55;;;5.03;;
4694;SDS011;2361;49.540;8.390;2022-12-15T00:41:11;14.45;;;6.97;;
4694;SDS011;2361;49.540;8.390;2022-12-15T00:43:41;11.55;;;5.03;;
4694;SDS011;2361;49.540;8.390;2022-12-15T00:46:09;12.25;;;5.18;;
4694;SDS011;2361;49.540;8.390;2022-12-15T00:48:55;10.55;;;5.50;;
4694;SDS011;2361;49.540;8.390;2022-12-15T00:51:22;11.43;;;6.32;;
4694;SDS011;2361;49.540;8.390;2022-12-15T00:54:09;10.10;;;5.80;;
4694;SDS011;2361;49.540;8.390;2022-12-15T00:56:54;14.20;;;7.07;;
4694;SDS011;2361;49.540;8.390;2022-12-15T00:59:40;14.75;;;7.22;;
4694;SDS011;2361;49.540;8.390;2022-12-15T01:02:26;13.63;;;6.72;;
4694;SDS011;2361;49.540;8.390;2022-12-15T01:05:11;13.05;;;6.50;;
4694;SDS011;2361;49.540;8.390;2022-12-15T01:07:58;10.80;;;5.40;;
4694;SDS011;2361;49.540;8.390;2022-12-15T01:10:43;11.63;;;5.60;;
4694;SDS011;2361;49.540;8.390;2022-12-15T01:13:28;10.93;;;5.28;;
4694;SDS011;2361;49.540;8.390;2022-12-15T01:16:15;7.03;;;4.03;;
4694;SDS011;2361;49.540;8.390;2022-12-15T01:19:01;5.53;;;3.17;;
4694;SDS011;2361;49.540;8.390;2022-12-15T01:21:46;3.42;;;2.50;;
4694;SDS011;2361;49.540;8.390;2022-12-15T01:24:14;3.90;;;2.47;;
4694;SDS011;2361;49.540;8.390;2022-12-15T01:26:41;10.52;;;4.82;;
4694;SDS011;2361;49.540;8.390;2022-12-15T01:29:08;12.63;;;6.10;;
4694;SDS011;2361;49.540;8.390;2022-12-15T01:31:35;11.02;;;6.20;;
4694;SDS011;2361;49.540;8.390;2022-12-15T01:34:02;15.93;;;7.68;;
4694;SDS011;2361;49.540;8.390;2022-12-15T01:36:29;13.38;;;7.20;;
4694;SDS011;2361;49.540;8.390;2022-12-15T01:38:56;10.43;;;5.80;;
4694;SDS011;2361;49.540;8.390;2022-12-15T01:41:23;14.30;;;6.55;;
4694;SDS011;2361;49.540;8.390;2022-12-15T01:43:50;11.13;;;6.25;;
4694;SDS011;2361;49.540;8.390;2022-12-15T01:46:21;16.58;;;8.90;;
4694;SDS011;2361;49.540;8.390;2022-12-15T01:48:59;17.35;;;8.32;;
4694;SDS011;2361;49.540;8.390;2022-12-15T01:51:49;16.75;;;9.07;;
4694;SDS011;2361;49.540;8.390;2022-12-15T01:54:25;13.82;;;6.55;;
4694;SDS011;2361;49.540;8.390;2022-12-15T01:56:59;12.90;;;5.45;;
4694;SDS011;2361;49.540;8.390;2022-12-15T01:59:33;10.07;;;5.78;;
4694;SDS011;2361;49.540;8.390;2022-12-15T02:02:04;10.57;;;6.65;;
4694;SDS011;2361;49.540;8.390;2022-12-15T02:04:31;14.68;;;7.85;;
4694;SDS011;2361;49.540;8.390;2022-12-15T02:06:59;20.77;;;9.77;;
4694;SDS011;2361;49.540;8.390;2022-12-15T02:09:26;20.10;;;9.15;;
4694;SDS011;2361;49.540;8.390;2022-12-15T02:14:29;22.15;;;8.85;;
4694;SDS011;2361;49.540;8.390;2022-12-15T02:17:15;14.38;;;7.75;;
4694;SDS011;2361;49.540;8.390;2022-12-15T02:30:12;14.77;;;8.38;;
4694;SDS011;2361;49.540;8.390;2022-12-15T02:32:48;10.63;;;5.90;;
4694;SDS011;2361;49.540;8.390;2022-12-15T02:38:55;21.38;;;7.80;;
4694;SDS011;2361;49.540;8.390;2022-12-15T02:44:21;15.93;;;8.13;;
4694;SDS011;2361;49.540;8.390;2022-12-15T02:58:48;12.07;;;7.10;;
4694;SDS011;2361;49.540;8.390;2022-12-15T03:02:04;15.85;;;6.18;;
4694;SDS011;2361;49.540;8.390;2022-12-15T03:04:32;17.38;;;8.77;;
4694;SDS011;2361;49.540;8.390;2022-12-15T03:07:01;11.10;;;6.47;;
4694;SDS011;2361;49.540;8.390;2022-12-15T03:09:34;15.45;;;7.00;;
4694;SDS011;2361;49.540;8.390;2022-12-15T03:12:01;8.38;;;5.25;;
4694;SDS011;2361;49.540;8.390;2022-12-15T03:14:28;11.57;;;6.38;;
4694;SDS011;2361;49.540;8.390;2022-12-15T03:16:55;13.00;;;6.55;;
4694;SDS011;2361;49.540;8.390;2022-12-15T03:19:22;11.35;;;6.07;;
4694;SDS011;2361;49.540;8.390;2022-12-15T03:21:49;12.50;;;5.93;;
4694;SDS011;2361;49.540;8.390;2022-12-15T03:24:16;9.45;;;5.00;;
4694;SDS011;2361;49.540;8.390;2022-12-15T03:26:43;8.18;;;4.13;;
4694;SDS011;2361;49.540;8.390;2022-12-15T03:29:13;7.38;;;4.95;;
4694;SDS011;2361;49.540;8.390;2022-12-15T03:31:41;13.52;;;5.65;;
4694;SDS011;2361;49.540;8.390;2022-12-15T03:34:09;9.93;;;5.60;;
4694;SDS011;2361;49.540;8.390;2022-12-15T03:36:36;12.10;;;6.43;;
4694;SDS011;2361;49.540;8.390;2022-12-15T03:39:03;12.23;;;6.53;;
4694;SDS011;2361;49.540;8.390;2022-12-15T03:41:30;11.98;;;6.65;;
4694;SDS011;2361;49.540;8.390;2022-12-15T03:43:57;13.63;;;6.43;;
4694;SDS011;2361;49.540;8.390;2022-12-15T03:46:25;12.30;;;7.22;;
4694;SDS011;2361;49.540;8.390;2022-12-15T03:48:52;12.98;;;6.47;;
4694;SDS011;2361;49.540;8.390;2022-12-15T03:51:19;15.13;;;6.38;;
4694;SDS011;2361;49.540;8.390;2022-12-15T03:53:46;10.43;;;5.15;;
4694;SDS011;2361;49.540;8.390;2022-12-15T03:56:14;12.70;;;5.85;;
4694;SDS011;2361;49.540;8.390;2022-12-15T03:58:42;13.63;;;6.00;;
4694;SDS011;2361;49.540;8.390;2022-12-15T04:01:16;11.35;;;6.50;;
4694;SDS011;2361;49.540;8.390;2022-12-15T04:03:53;10.10;;;6.00;;
4694;SDS011;2361;49.540;8.390;2022-12-15T04:06:26;14.43;;;6.30;;
4694;SDS011;2361;49.540;8.390;2022-12-15T04:08:54;9.02;;;5.10;;
4694;SDS011;2361;49.540;8.390;2022-12-15T04:11:21;10.23;;;5.97;;
4694;SDS011;2361;49.540;8.390;2022-12-15T04:13:48;12.55;;;6.60;;
4694;SDS011;2361;49.540;8.390;2022-12-15T04:16:15;10.75;;;5.93;;
4694;SDS011;2361;49.540;8.390;2022-12-15T04:18:45;9.23;;;5.68;;
4694;SDS011;2361;49.540;8.390;2022-12-15T04:21:33;8.63;;;5.50;;
4694;SDS011;2361;49.540;8.390;2022-12-15T04:23:59;13.80;;;5.60;;
4694;SDS011;2361;49.540;8.390;2022-12-15T04:26:45;7.07;;;4.35;;
4694;SDS011;2361;49.540;8.390;2022-12-15T04:29:30;10.55;;;6.63;;
4694;SDS011;2361;49.540;8.390;2022-12-15T04:32:16;13.77;;;6.60;;
4694;SDS011;2361;49.540;8.390;2022-12-15T04:35:01;13.55;;;6.93;;
4694;SDS011;2361;49.540;8.390;2022-12-15T04:37:47;18.65;;;9.30;;
4694;SDS011;2361;49.540;8.390;2022-12-15T04:40:32;13.77;;;7.90;;
4694;SDS011;2361;49.540;8.390;2022-12-15T04:43:18;11.75;;;7.45;;
4694;SDS011;2361;49.540;8.390;2022-12-15T04:46:03;15.45;;;7.43;;
4694;SDS011;2361;49.540;8.390;2022-12-15T04:48:49;14.90;;;7.25;;
4694;SDS011;2361;49.540;8.390;2022-12-15T04:51:34;14.77;;;7.97;;
4694;SDS011;2361;49.540;8.390;2022-12-15T04:54:20;15.65;;;7.00;;
4694;SDS011;2361;49.540;8.390;2022-12-15T04:57:05;11.60;;;6.60;;
4694;SDS011;2361;49.540;8.390;2022-12-15T04:59:51;15.43;;;8.35;;
4694;SDS011;2361;49.540;8.390;2022-12-15T05:02:36;18.73;;;8.57;;
4694;SDS011;2361;49.540;8.390;2022-12-15T05:05:21;10.95;;;7.38;;
4694;SDS011;2361;49.540;8.390;2022-12-15T05:08:07;13.55;;;7.35;;
4694;SDS011;2361;49.540;8.390;2022-12-15T05:10:52;18.13;;;7.28;;
4694;SDS011;2361;49.540;8.390;2022-12-15T05:13:38;14.18;;;8.38;;
4694;SDS011;2361;49.540;8.390;2022-12-15T05:16:23;14.45;;;7.30;;
4694;SDS011;2361;49.540;8.390;2022-12-15T05:19:08;13.40;;;7.30;;
4694;SDS011;2361;49.540;8.390;2022-12-15T05:21:54;19.13;;;9.77;;
4694;SDS011;2361;49.540;8.390;2022-12-15T05:24:39;13.90;;;8.25;;
4694;SDS011;2361;49.540;8.390;2022-12-15T05:27:25;23.40;;;11.18;;
4694;SDS011;2361;49.540;8.390;2022-12-15T05:30:10;10.30;;;6.10;;
4694;SDS011;2361;49.540;8.390;2022-12-15T05:32:55;11.32;;;6.03;;
4694;SDS011;2361;49.540;8.390;2022-12-15T05:35:22;15.65;;;7.22;;
4694;SDS011;2361;49.540;8.390;2022-12-15T05:37:49;11.30;;;6.65;;
4694;SDS011;2361;49.540;8.390;2022-12-15T05:40:16;10.52;;;6.85;;
4694;SDS011;2361;49.540;8.390;2022-12-15T05:42:43;13.15;;;7.53;;
4694;SDS011;2361;49.540;8.390;2022-12-15T05:45:15;16.15;;;7.68;;
4694;SDS011;2361;49.540;8.390;2022-12-15T05:47:42;15.68;;;8.60;;
4694;SDS011;2361;49.540;8.390;2022-12-15T05:50:09;12.85;;;7.72;;
4694;SDS011;2361;49.540;8.390;2022-12-15T05:52:35;8.60;;;5.63;;
4694;SDS011;2361;49.540;8.390;2022-12-15T05:55:02;12.15;;;6.28;;
4694;SDS011;2361;49.540;8.390;2022-12-15T05:57:30;12.40;;;6.72;;
4694;SDS011;2361;49.540;8.390;2022-12-15T05:59:57;17.42;;;9.10;;
4694;SDS011;2361;49.540;8.390;2022-12-15T06:02:24;19.45;;;9.63;;
4694;SDS011;2361;49.540;8.390;2022-12-15T06:04:53;17.13;;;8.75;;
4694;SDS011;2361;49.540;8.390;2022-12-15T06:07:20;14.85;;;6.72;;
4694;SDS011;2361;49.540;8.390;2022-12-15T06:09:47;16.02;;;8.40;;
4694;SDS011;2361;49.540;8.390;2022-12-15T06:12:14;10.77;;;6.68;;
4694;SDS011;2361;49.540;8.390;2022-12-15T06:14:41;16.08;;;8.10;;
4694;SDS011;2361;49.540;8.390;2022-12-15T06:17:08;18.75;;;7.50;;
4694;SDS011;2361;49.540;8.390;2022-12-15T06:19:35;6.47;;;4.40;;
4694;SDS011;2361;49.540;8.390;2022-12-15T06:22:02;0.73;;;0.70;;
4694;SDS011;2361;49.540;8.390;2022-12-15T06:24:28;1.38;;;1.17;;
4694;SDS011;2361;49.540;8.390;2022-12-15T06:26:55;11.73;;;6.55;;
4694;SDS011;2361;49.540;8.390;2022-12-15T06:29:22;12.38;;;6.30;;
4694;SDS011;2361;49.540;8.390;2022-12-15T06:31:49;15.38;;;8.35;;
4694;SDS011;2361;49.540;8.390;2022-12-15T06:34:16;14.75;;;8.02;;
4694;SDS011;2361;49.540;8.390;2022-12-15T06:36:44;20.05;;;10.30;;
4694;SDS011;2361;49.540;8.390;2022-12-15T06:39:12;23.35;;;10.73;;
4694;SDS011;2361;49.540;8.390;2022-12-15T06:41:41;11.80;;;6.85;;
4694;SDS011;2361;49.540;8.390;2022-12-15T06:44:11;14.13;;;8.00;;
4694;SDS011;2361;49.540;8.390;2022-12-15T06:46:40;11.93;;;6.85;;
4694;SDS011;2361;49.540;8.390;2022-12-15T06:49:08;15.98;;;7.70;;
4694;SDS011;2361;49.540;8.390;2022-12-15T06:51:35;13.85;;;6.15;;
4694;SDS011;2361;49.540;8.390;2022-12-15T06:54:02;9.80;;;5.15;;
4694;SDS011;2361;49.540;8.390;2022-12-15T06:56:30;17.08;;;8.65;;
4694;SDS011;2361;49.540;8.390;2022-12-15T06:59:04;13.05;;;6.93;;
4694;SDS011;2361;49.540;8.390;2022-12-15T07:01:32;14.38;;;7.90;;
4694;SDS011;2361;49.540;8.390;2022-12-15T07:04:00;12.98;;;6.65;;
4694;SDS011;2361;49.540;8.390;2022-12-15T07:06:36;13.02;;;7.50;;
4694;SDS011;2361;49.540;8.390;2022-12-15T07:09:09;11.43;;;5.70;;
4694;SDS011;2361;49.540;8.390;2022-12-15T07:11:41;12.80;;;7.28;;
4694;SDS011;2361;49.540;8.390;2022-12-15T07:14:08;13.52;;;7.25;;
4694;SDS011;2361;49.540;8.390;2022-12-15T07:16:35;14.25;;;7.72;;
4694;SDS011;2361;49.540;8.390;2022-12-15T07:19:02;19.98;;;10.65;;
4694;SDS011;2361;49.540;8.390;2022-12-15T07:21:29;21.20;;;10.65;;
4694;SDS011;2361;49.540;8.390;2022-12-15T07:23:57;19.35;;;9.65;;
4694;SDS011;2361;49.540;8.390;2022-12-15T07:26:25;19.88;;;9.30;;
4694;SDS011;2361;49.540;8.390;2022-12-15T07:28:52;15.68;;;8.35;;
4694;SDS011;2361;49.540;8.390;2022-12-15T07:31:20;10.23;;;5.07;;
4694;SDS011;2361;49.540;8.390;2022-12-15T07:33:48;18.05;;;8.60;;
4694;SDS011;2361;49.540;8.390;2022-12-15T07:36:17;17.30;;;6.15;;
4694;SDS011;2361;49.540;8.390;2022-12-15T07:38:44;12.57;;;5.60;;
4694;SDS011;2361;49.540;8.390;2022-12-15T07:41:16;10.48;;;5.50;;
4694;SDS011;2361;49.540;8.390;2022-12-15T07:43:44;12.90;;;6.95;;
4694;SDS011;2361;49.540;8.390;2022-12-15T07:46:12;13.50;;;7.05;;
4694;SDS011;2361;49.540;8.390;2022-12-15T07:48:39;17.13;;;8.68;;
4694;SDS011;2361;49.540;8.390;2022-12-15T07:51:06;16.33;;;6.65;;
4694;SDS011;2361;49.540;8.390;2022-12-15T07:53:44;13.32;;;6.95;;
4694;SDS011;2361;49.540;8.390;2022-12-15T07:56:15;15.40;;;7.18;;
4694;SDS011;2361;49.540;8.390;2022-12-15T07:58:43;13.95;;;7.88;;
4694;SDS011;2361;49.540;8.390;2022-12-15T08:01:11;7.20;;;3.55;;
4694;SDS011;2361;49.540;8.390;2022-12-15T08:03:39;2.40;;;2.20;;
4694;SDS011;2361;49.540;8.390;2022-12-15T08:06:08;11.85;;;6.43;;
4694;SDS011;2361;49.540;8.390;2022-12-15T08:08:38;19.13;;;9.63;;
4694;SDS011;2361;49.540;8.390;2022-12-15T08:11:06;8.30;;;6.33;;
4694;SDS011;2361;49.540;8.390;2022-12-15T08:13:35;11.77;;;5.55;;
4694;SDS011;2361;49.540;8.390;2022-12-15T08:16:23;15.93;;;7.43;;
4694;SDS011;2361;49.540;8.390;2022-12-15T08:18:50;6.38;;;3.42;;
4694;SDS011;2361;49.540;8.390;2022-12-15T08:21:17;10.13;;;5.22;;
4694;SDS011;2361;49.540;8.390;2022-12-15T08:23:44;19.35;;;9.95;;
4694;SDS011;2361;49.540;8.390;2022-12-15T08:26:13;16.27;;;8.45;;
4694;SDS011;2361;49.540;8.390;2022-12-15T08:28:42;13.90;;;7.70;;
4694;SDS011;2361;49.540;8.390;2022-12-15T08:31:12;12.85;;;7.55;;
4694;SDS011;2361;49.540;8.390;2022-12-15T08:33:46;11.45;;;7.18;;
4694;SDS011;2361;49.540;8.390;2022-12-15T08:36:14;17.38;;;8.20;;
4694;SDS011;2361;49.540;8.390;2022-12-15T08:38:44;13.02;;;5.85;;
4694;SDS011;2361;49.540;8.390;2022-12-15T08:43:45;11.10;;;6.55;;
4694;SDS011;2361;49.540;8.390;2022-12-15T08:46:18;15.85;;;8.52;;
4694;SDS011;2361;49.540;8.390;2022-12-15T08:48:53;22.35;;;10.23;;
4694;SDS011;2361;49.540;8.390;2022-12-15T08:51:21;16.50;;;8.88;;
4694;SDS011;2361;49.540;8.390;2022-12-15T08:53:50;11.05;;;6.70;;
4694;SDS011;2361;49.540;8.390;2022-12-15T08:56:19;12.40;;;6.63;;
4694;SDS011;2361;49.540;8.390;2022-12-15T08:58:47;10.32;;;6.72;;
4694;SDS011;2361;49.540;8.390;2022-12-15T09:01:17;15.38;;;6.80;;
4694;SDS011;2361;49.540;8.390;2022-12-15T09:03:53;8.75;;;5.35;;
4694;SDS011;2361;49.540;8.390;2022-12-15T09:06:25;11.68;;;7.28;;
4694;SDS011;2361;49.540;8.390;2022-12-15T09:08:55;18.50;;;8.10;;
4694;SDS011;2361;49.540;8.390;2022-12-15T09:11:25;20.98;;;8.63;;
4694;SDS011;2361;49.540;8.390;2022-12-15T09:13:54;16.67;;;8.80;;
4694;SDS011;2361;49.540;8.390;2022-12-15T09:16:21;17.85;;;9.15;;
4694;SDS011;2361;49.540;8.390;2022-12-15T09:18:50;21.60;;;9.63;;
4694;SDS011;2361;49.540;8.390;2022-12-15T09:21:20;14.10;;;8.27;;
4694;SDS011;2361;49.540;8.390;2022-12-15T09:23:51;20.48;;;11.00;;
4694;SDS011;2361;49.540;8.390;2022-12-15T09:26:21;21.48;;;10.25;;
4694;SDS011;2361;49.540;8.390;2022-12-15T09:28:48;19.42;;;11.27;;
4694;SDS011;2361;49.540;8.390;2022-12-15T09:33:48;23.42;;;12.63;;
4694;SDS011;2361;49.540;8.390;2022-12-15T09:36:17;21.98;;;10.68;;
4694;SDS011;2361;49.540;8.390;2022-12-15T09:38:45;25.60;;;11.90;;
4694;SDS011;2361;49.540;8.390;2022-12-15T09:43:59;14.73;;;8.35;;
4694;SDS011;2361;49.540;8.390;2022-12-15T09:49:45;18.08;;;9.35;;
4694;SDS011;2361;49.540;8.390;2022-12-15T09:57:51;10.80;;;4.45;;
4694;SDS011;2361;49.540;8.390;2022-12-15T10:00:45;16.95;;;9.93;;
4694;SDS011;2361;49.540;8.390;2022-12-15T10:06:32;15.68;;;8.75;;
4694;SDS011;2361;49.540;8.390;2022-12-15T10:09:15;23.48;;;12.05;;
4694;SDS011;2361;49.540;8.390;2022-12-15T10:11:47;25.05;;;14.30;;
4694;SDS011;2361;49.540;8.390;2022-12-15T10:14:38;23.23;;;12.05;;
4694;SDS011;2361;49.540;8.390;2022-12-15T10:17:31;21.90;;;12.50;;
4694;SDS011;2361;49.540;8.390;2022-12-15T10:20:15;22.13;;;12.88;;
4694;SDS011;2361;49.540;8.390;2022-12-15T10:22:49;20.80;;;12.57;;
4694;SDS011;2361;49.540;8.390;2022-12-15T10:31:00;15.57;;;7.32;;
4694;SDS011;2361;49.540;8.390;2022-12-15T10:33:56;24.90;;;12.68;;
4694;SDS011;2361;49.540;8.390;2022-12-15T10:36:36;20.30;;;11.27;;
4694;SDS011;2361;49.540;8.390;2022-12-15T10:39:03;21.83;;;11.10;;
4694;SDS011;2361;49.540;8.390;2022-12-15T10:41:31;26.98;;;15.30;;
4694;SDS011;2361;49.540;8.390;2022-12-15T10:43:58;22.25;;;9.45;;
4694;SDS011;2361;49.540;8.390;2022-12-15T10:46:28;9.10;;;4.15;;
4694;SDS011;2361;49.540;8.390;2022-12-15T10:51:36;24.30;;;14.82;;
4694;SDS011;2361;49.540;8.390;2022-12-15T10:54:21;28.63;;;14.60;;
4694;SDS011;2361;49.540;8.390;2022-12-15T10:56:59;7.60;;;3.50;;
4694;SDS011;2361;49.540;8.390;2022-12-15T10:59:42;26.65;;;15.50;;
4694;SDS011;2361;49.540;8.390;2022-12-15T11:04:54;27.45;;;12.40;;
4694;SDS011;2361;49.540;8.390;2022-12-15T11:10:37;26.17;;;13.10;;
4694;SDS011;2361;49.540;8.390;2022-12-15T11:13:38;27.63;;;14.43;;
4694;SDS011;2361;49.540;8.390;2022-12-15T11:16:15;20.77;;;9.50;;
4694;SDS011;2361;49.540;8.390;2022-12-15T11:18:51;26.33;;;13.10;;
4694;SDS011;2361;49.540;8.390;2022-12-15T11:21:29;29.23;;;15.80;;
4694;SDS011;2361;49.540;8.390;2022-12-15T11:24:12;31.42;;;16.63;;
4694;SDS011;2361;49.540;8.390;2022-12-15T11:29:20;31.10;;;15.68;;
4694;SDS011;2361;49.540;8.390;2022-12-15T11:32:21;22.17;;;11.07;;
4694;SDS011;2361;49.540;8.390;2022-12-15T11:34:52;31.27;;;17.83;;
4694;SDS011;2361;49.540;8.390;2022-12-15T11:51:39;33.65;;;14.75;;
4694;SDS011;2361;49.540;8.390;2022-12-15T11:54:41;23.58;;;9.98;;
4694;SDS011;2361;49.540;8.390;2022-12-15T12:06:10;16.92;;;7.78;;
4694;SDS011;2361;49.540;8.390;2022-12-15T12:09:21;31.92;;;18.38;;
4694;SDS011;2361;49.540;8.390;2022-12-15T12:12:24;33.50;;;18.70;;
4694;SDS011;2361;49.540;8.390;2022-12-15T12:18:33;31.15;;;15.68;;
4694;SDS011;2361;49.540;8.390;2022-12-15T12:21:17;18.00;;;9.30;;
4694;SDS011;2361;49.540;8.390;2022-12-15T12:23:56;13.50;;;7.93;;
4694;SDS011;2361;49.540;8.390;2022-12-15T12:26:51;31.13;;;16.42;;
4694;SDS011;2361;49.540;8.390;2022-12-15T12:29:37;30.80;;;15.57;;
4694;SDS011;2361;49.540;8.390;2022-12-15T12:35:09;30.05;;;16.10;;
4694;SDS011;2361;49.540;8.390;2022-12-15T12:37:59;30.58;;;16.90;;
4694;SDS011;2361;49.540;8.390;2022-12-15T12:40:40;29.98;;;17.02;;
4694;SDS011;2361;49.540;8.390;2022-12-15T12:43:41;32.47;;;18.67;;
4694;SDS011;2361;49.540;8.390;2022-12-15T12:49:10;28.48;;;16.58;;
4694;SDS011;2361;49.540;8.390;2022-12-15T12:51:52;32.13;;;18.35;;
4694;SDS011;2361;49.540;8.390;2022-12-15T12:57:00;30.13;;;14.80;;
4694;SDS011;2361;49.540;8.390;2022-12-15T13:05:37;30.60;;;17.05;;
4694;SDS011;2361;49.540;8.390;2022-12-15T13:10:36;35.25;;;15.65;;
4694;SDS011;2361;49.540;8.390;2022-12-15T13:24:17;26.23;;;12.73;;
4694;SDS011;2361;49.540;8.390;2022-12-15T13:29:55;26.10;;;15.93;;
4694;SDS011;2361;49.540;8.390;2022-12-15T13:32:41;12.00;;;6.38;;
4694;SDS011;2361;49.540;8.390;2022-12-15T13:37:53;22.63;;;10.93;;
4694;SDS011;2361;49.540;8.390;2022-12-15T13:48:38;19.30;;;9.40;;
4694;SDS011;2361;49.540;8.390;2022-12-15T13:51:57;28.23;;;14.38;;
4694;SDS011;2361;49.540;8.390;2022-12-15T13:54:30;29.50;;;15.32;;
4694;SDS011;2361;49.540;8.390;2022-12-15T13:59:43;28.75;;;15.75;;
4694;SDS011;2361;49.540;8.390;2022-12-15T14:02:25;27.60;;;12.80;;
4694;SDS011;2361;49.540;8.390;2022-12-15T14:12:54;31.08;;;16.40;;
4694;SDS011;2361;49.540;8.390;2022-12-15T14:15:30;26.58;;;15.68;;
4694;SDS011;2361;49.540;8.390;2022-12-15T14:18:00;29.83;;;18.30;;
4694;SDS011;2361;49.540;8.390;2022-12-15T14:20:28;26.40;;;15.05;;
4694;SDS011;2361;49.540;8.390;2022-12-15T14:23:21;33.10;;;20.08;;
4694;SDS011;2361;49.540;8.390;2022-12-15T14:26:05;24.98;;;13.02;;
4694;SDS011;2361;49.540;8.390;2022-12-15T14:28:37;24.15;;;12.23;;
4694;SDS011;2361;49.540;8.390;2022-12-15T14:31:16;29.15;;;14.98;;
4694;SDS011;2361;49.540;8.390;2022-12-15T14:33:47;24.95;;;11.45;;
4694;SDS011;2361;49.540;8.390;2022-12-15T14:36:28;26.33;;;13.63;;
4694;SDS011;2361;49.540;8.390;2022-12-15T14:39:40;29.63;;;14.85;;
4694;SDS011;2361;49.540;8.390;2022-12-15T14:41:51;21.23;;;11.10;;
4694;SDS011;2361;49.540;8.390;2022-12-15T14:44:31;33.50;;;14.38;;
4694;SDS011;2361;49.540;8.390;2022-12-15T14:47:20;23.83;;;13.57;;
4694;SDS011;2361;49.540;8.390;2022-12-15T14:49:52;18.77;;;7.80;;
4694;SDS011;2361;49.540;8.390;2022-12-15T14:55:03;21.20;;;10.70;;
4694;SDS011;2361;49.540;8.390;2022-12-15T14:58:45;21.73;;;10.23;;
4694;SDS011;2361;49.540;8.390;2022-12-15T15:01:23;29.77;;;15.40;;
4694;SDS011;2361;49.540;8.390;2022-12-15T15:03:57;26.25;;;15.45;;
4694;SDS011;2361;49.540;8.390;2022-12-15T15:06:53;21.88;;;11.18;;
4694;SDS011;2361;49.540;8.390;2022-12-15T15:09:26;15.82;;;7.63;;
4694;SDS011;2361;49.540;8.390;2022-12-15T15:12:04;20.10;;;10.18;;
4694;SDS011;2361;49.540;8.390;2022-12-15T15:14:43;27.20;;;13.95;;
4694;SDS011;2361;49.540;8.390;2022-12-15T15:20:29;29.35;;;14.60;;
4694;SDS011;2361;49.540;8.390;2022-12-15T15:23:02;28.80;;;14.65;;
4694;SDS011;2361;49.540;8.390;2022-12-15T15:30:55;30.25;;;19.13;;
4694;SDS011;2361;49.540;8.390;2022-12-15T15:33:31;23.63;;;12.25;;
4694;SDS011;2361;49.540;8.390;2022-12-15T15:35:59;29.70;;;19.40;;
4694;SDS011;2361;49.540;8.390;2022-12-15T15:38:31;15.38;;;6.15;;
4694;SDS011;2361;49.540;8.390;2022-12-15T15:41:10;30.33;;;17.67;;
4694;SDS011;2361;49.540;8.390;2022-12-15T15:43:43;26.70;;;14.20;;
4694;SDS011;2361;49.540;8.390;2022-12-15T15:46:18;26.27;;;15.02;;
4694;SDS011;2361;49.540;8.390;2022-12-15T15:48:52;28.55;;;16.70;;
4694;SDS011;2361;49.540;8.390;2022-12-15T15:51:26;34.97;;;17.40;;
4694;SDS011;2361;49.540;8.390;2022-12-15T15:53:59;31.13;;;18.75;;
4694;SDS011;2361;49.540;8.390;2022-12-15T15:56:30;30.60;;;16.10;;
4694;SDS011;2361;49.540;8.390;2022-12-15T15:58:57;26.80;;;18.17;;
4694;SDS011;2361;49.540;8.390;2022-12-15T16:01:34;26.80;;;14.07;;
4694;SDS011;2361;49.540;8.390;2022-12-15T16:04:01;27.33;;;16.20;;
4694;SDS011;2361;49.540;8.390;2022-12-15T16:06:28;25.05;;;13.10;;
4694;SDS011;2361;49.540;8.390;2022-12-15T16:08:55;25.60;;;10.90;;
4694;SDS011;2361;49.540;8.390;2022-12-15T16:11:22;31.63;;;16.05;;
4694;SDS011;2361;49.540;8.390;2022-12-15T16:13:51;26.67;;;13.57;;
4694;SDS011;2361;49.540;8.390;2022-12-15T16:16:20;29.67;;;18.63;;
4694;SDS011;2361;49.540;8.390;2022-12-15T16:18:50;28.08;;;10.40;;
4694;SDS011;2361;49.540;8.390;2022-12-15T16:21:17;25.55;;;14.00;;
4694;SDS011;2361;49.540;8.390;2022-12-15T16:23:47;33.42;;;15.68;;
4694;SDS011;2361;49.540;8.390;2022-12-15T16:26:16;26.98;;;14.02;;
4694;SDS011;2361;49.540;8.390;2022-12-15T16:28:52;31.58;;;14.82;;
4694;SDS011;2361;49.540;8.390;2022-12-15T16:31:32;25.02;;;12.52;;
4694;SDS011;2361;49.540;8.390;2022-12-15T16:34:07;30.23;;;16.90;;
4694;SDS011;2361;49.540;8.390;2022-12-15T16:36:34;18.02;;;8.88;;
4694;SDS011;2361;49.540;8.390;2022-12-15T16:39:01;30.42;;;15.43;;
4694;SDS011;2361;49.540;8.390;2022-12-15T16:41:29;29.48;;;14.30;;
4694;SDS011;2361;49.540;8.390;2022-12-15T16:43:58;28.08;;;14.45;;
4694;SDS011;2361;49.540;8.390;2022-12-15T16:46:24;27.88;;;15.38;;
4694;SDS011;2361;49.540;8.390;2022-12-15T16:48:51;34.35;;;13.63;;
4694;SDS011;2361;49.540;8.390;2022-12-15T16:51:30;8.95;;;4.82;;
4694;SDS011;2361;49.540;8.390;2022-12-15T16:54:04;31.02;;;17.88;;
4694;SDS011;2361;49.540;8.390;2022-12-15T16:56:31;27.13;;;15.20;;
4694;SDS011;2361;49.540;8.390;2022-12-15T16:58:59;28.75;;;18.45;;
4694;SDS011;2361;49.540;8.390;2022-12-15T17:01:45;22.13;;;12.25;;
4694;SDS011;2361;49.540;8.390;2022-12-15T17:04:13;30.45;;;16.95;;
4694;SDS011;2361;49.540;8.390;2022-12-15T17:06:41;31.80;;;20.13;;
4694;SDS011;2361;49.540;8.390;2022-12-15T17:09:12;29.35;;;15.25;;
4694;SDS011;2361;49.540;8.390;2022-12-15T17:11:46;22.40;;;11.98;;
4694;SDS011;2361;49.540;8.390;2022-12-15T17:14:13;32.33;;;10.93;;
4694;SDS011;2361;49.540;8.390;2022-12-15T17:16:40;30.52;;;15.40;;
4694;SDS011;2361;49.540;8.390;2022-12-15T17:19:07;30.33;;;16.80;;
4694;SDS011;2361;49.540;8.390;2022-12-15T17:21:37;30.55;;;16.08;;
4694;SDS011;2361;49.540;8.390;2022-12-15T17:24:15;14.90;;;6.60;;
4694;SDS011;2361;49.540;8.390;2022-12-15T17:26:45;20.70;;;11.05;;
4694;SDS011;2361;49.540;8.390;2022-12-15T17:29:15;29.88;;;15.25;;
4694;SDS011;2361;49.540;8.390;2022-12-15T17:31:46;30.33;;;15.23;;
4694;SDS011;2361;49.540;8.390;2022-12-15T17:36:58;20.38;;;9.35;;
4694;SDS011;2361;49.540;8.390;2022-12-15T17:39:28;26.08;;;13.00;;
4694;SDS011;2361;49.540;8.390;2022-12-15T17:41:56;28.52;;;15.88;;
4694;SDS011;2361;49.540;8.390;2022-12-15T17:44:27;27.02;;;13.18;;
4694;SDS011;2361;49.540;8.390;2022-12-15T17:47:01;31.13;;;17.63;;
4694;SDS011;2361;49.540;8.390;2022-12-15T17:49:29;31.35;;;17.98;;
4694;SDS011;2361;49.540;8.390;2022-12-15T17:52:03;28.85;;;15.43;;
4694;SDS011;2361;49.540;8.390;2022-12-15T17:54:42;28.58;;;15.95;;
4694;SDS011;2361;49.540;8.390;2022-12-15T17:57:12;28.67;;;17.05;;
4694;SDS011;2361;49.540;8.390;2022-12-15T17:59:39;27.77;;;17.27;;
4694;SDS011;2361;49.540;8.390;2022-12-15T18:02:08;25.25;;;12.65;;
4694;SDS011;2361;49.540;8.390;2022-12-15T18:04:39;29.60;;;15.27;;
4694;SDS011;2361;49.540;8.390;2022-12-15T18:07:12;29.30;;;14.70;;
4694;SDS011;2361;49.540;8.390;2022-12-15T18:09:45;24.25;;;10.70;;
4694;SDS011;2361;49.540;8.390;2022-12-15T18:12:21;28.55;;;15.20;;
4694;SDS011;2361;49.540;8.390;2022-12-15T18:14:51;27.58;;;17.88;;
4694;SDS011;2361;49.540;8.390;2022-12-15T18:17:19;27.85;;;18.33;;
4694;SDS011;2361;49.540;8.390;2022-12-15T18:19:46;29.02;;;15.15;;
4694;SDS011;2361;49.540;8.390;2022-12-15T18:22:17;28.52;;;16.95;;
4694;SDS011;2361;49.540;8.390;2022-12-15T18:24:47;27.77;;;17.70;;